Mount Pleasant, TX (75455)

5:06 AM CDT en Octubre 23, 2014 (GMT -0500)
Mount Pleasant | Change Station
CLOSE
Current Station
Aeropuerto
Location: Mount Pleasant,
Altura: 364 ft
Estaciones meteorológicas cercanas

Alt 364 ft 33.10 °N, 94.96 °W | Updated 11 minutes ago

Muy nublado
Muy nublado
58 ° F
Sensación térmica 58 ° F
N
0
Viento Variable Viento desde Norte

Hoy
Alta -- | Baja -- ° F
--% Posibilidad de precipitaciones
Ayer
Alta -- | Baja -- ° F
Precip. -- pul
7:30 AM 6:37 PM
Creciente menguante, 0% visible
Presión 30.16 pul
Visibilidad 10.0 Millas
Nubes Despejado
Punto de rocío 52 ° F
Humedad 80%
Precipitaciones 0.00 pul
Espesor de la nieve No disponible.
UV 0 de una escala de 12
Polen 2.60 de una escala de 12
Calidad del aire No disponible.
Flu Activity No disponible.
METAR KOSA 230955Z AUTO 00000KT 10SM CLR 15/11 A3016 RMK AO1 T01460111

More Conditions Fewer Conditions

Presión 30.16 pul
Visibilidad 10.0 Millas
Nubes Despejado
Punto de rocío 52 ° F
Humedad 80%
Precipitaciones 0.00 pul
Espesor de la nieve No disponible.
UV 0 de una escala de 12
Polen 2.60 de una escala de 12
Calidad del aire No disponible.
Flu Activity No disponible.
METAR KOSA 230955Z AUTO 00000KT 10SM CLR 15/11 A3016 RMK AO1 T01460111

More Conditions Fewer Conditions

Nowcast | as of 5:04 am CDT on October 23, 2014

Scattered showers of very light rain may move into the area from the west by daybreak. However...rainfall will remain too light to pose any morning travel issues.

×

10-Day Weather Forecast

Almanac

Astronomía

Oct. 23, 2014 Salida Puesta
Hora real 7:30 AM CDT 6:37 PM CDT
Crepúsculo civil 7:05 AM CDT 7:02 PM CDT
Crepúsculo náutico 6:36 AM CDT 7:31 PM CDT
Crepúsculo astronómico 6:07 AM CDT 8:00 PM CDT
Luna 7:12 AM CDT 6:39 PM CDT
Horas de luz 11h 57m
Horas de luz
11h 06m
Tomorrow will be 1m 54s shorter.
Creciente menguante, 0% of the Moon is Illuminated
Hoy
Creciente menguante
Oct 23
Nueva
Oct 30
Cuarto creciente
Nov 6
Luna llena
Nov 14
Cuarto menguante

Extremos de hoy

Máximos del estado Bajos del estado

Community

WunderPhotos

Upload Photos

1,764,201 ¡fotos cargadas!

Nearby

Grosos de nieve

Estación Profundido Altura
No tenemos constancia de nieve nueva.

Actividad de terremotos

Ciudad Distance Mag. Tiempo y dato
No hay informes recientes de la actividad sísmica.
Magnitud mínima muestra es 2,5.

Temperaturas de aguas costeras

Lugar Temperatura
Sin partes meteorológicos de las estaciones

Estaciones meteorológicas cercanas